This is the latest recevied weather packets stored in our database for station/object XE2VP-WX. If no packets are shown the sender has not sent any weather packets the latest 1 day(s).
| Time | Temp. | Humidity | Pressure | Rain* | Wind** | Luminosity | Snow |
|---|---|---|---|---|---|---|---|
| 1777995008 | 26.11° C | 54% | 940.3 hPa | 0 mm | 1.34 m/s, 47° | 649 W/m² | - |
| 1777994947 | 26.11° C | 54% | 940.3 hPa | 0 mm | 1.34 m/s, 1° | 643 W/m² | - |
| 1777994887 | 26.11° C | 54% | 940.3 hPa | 0 mm | 1.34 m/s, 10° | 637 W/m² | - |
| 1777994827 | 26.11° C | 55% | 940.3 hPa | 0 mm | 1.34 m/s, 20° | 627 W/m² | - |
| 1777994773 | 26.11° C | 55% | 940.3 hPa | 0 mm | 1.34 m/s, 346° | 625 W/m² | - |
| 1777994707 | 26.11° C | 55% | 940.3 hPa | 0 mm | 1.34 m/s, 317° | 621 W/m² | - |
| 1777994647 | 26.11° C | 56% | 940.3 hPa | 0 mm | 1.34 m/s, 318° | 610 W/m² | - |
| 1777994587 | 26.11° C | 56% | 940.3 hPa | 0 mm | 1.34 m/s, 301° | 604 W/m² | - |
| 1777994527 | 26.11° C | 56% | 940.3 hPa | 0 mm | 1.34 m/s, 307° | 601 W/m² | - |
| 1777994467 | 26.11° C | 56% | 940.3 hPa | 0 mm | 1.34 m/s, 283° | 602 W/m² | - |
| 1777994407 | 26.11° C | 56% | 940.3 hPa | 0 mm | 1.34 m/s, 306° | 595 W/m² | - |
| 1777994348 | 26.11° C | 56% | 940.3 hPa | 0 mm | 1.34 m/s, 307° | 592 W/m² | - |
| 1777994287 | 26.11° C | 55% | 940.3 hPa | 0 mm | 1.34 m/s, 348° | 584 W/m² | - |
| 1777994228 | 26.11° C | 55% | 940.3 hPa | 0 mm | 1.34 m/s, 333° | 541 W/m² | - |
| 1777994167 | 26.11° C | 55% | 940.2 hPa | 0 mm | 1.34 m/s, 301° | 522 W/m² | - |
| 1777994107 | 26.11° C | 55% | 940.2 hPa | 0 mm | 0.89 m/s, 6° | 518 W/m² | - |
| 1777994046 | 26.11° C | 55% | 940.3 hPa | 0 mm | 0.89 m/s, 336° | 543 W/m² | - |
| 1777993985 | 26.11° C | 55% | 940.2 hPa | 0 mm | 0.89 m/s, 10° | 488 W/m² | - |
| 1777993926 | 25.56° C | 55% | 940.2 hPa | 0 mm | 0.89 m/s, 334° | 484 W/m² | - |
| 1777993865 | 25.56° C | 56% | 940.2 hPa | 0 mm | 0.89 m/s, 306° | 503 W/m² | - |
| 1777993805 | 25.56° C | 55% | 940.2 hPa | 0 mm | 0.89 m/s, 324° | 502 W/m² | - |
| 1777993746 | 25.56° C | 55% | 940.2 hPa | 0 mm | 0.89 m/s, 310° | 506 W/m² | - |
| 1777993686 | 25.56° C | 55% | 940.2 hPa | 0 mm | 0.89 m/s, 325° | 514 W/m² | - |
| 1777993626 | 25.56° C | 56% | 940.2 hPa | 0 mm | 1.34 m/s, 309° | 509 W/m² | - |
| 1777993565 | 25.56° C | 56% | 940.2 hPa | 0 mm | 1.34 m/s, 240° | 500 W/m² | - |
* Rain latest hour (hover to see other rain measurements)
** Current wind speed in m/s (hover to see current wind gust speed)